arxmliv
arxmliv build tool
 
KWARC group
LaTeXML
About
   
 

Detailed info

Back to Homepage

List of missing_macros

No. Date Filename num_warningnum_errornum_xmargok_xmargnum_xmathok_xmathMissing macros
15001 2013-04-13 22:20:17 /1012/1012.2626 030000[\extrasenglish, \dateenglish, \captionsenglish].
15002 2013-04-13 22:20:17 /1012/1012.2642 7330000[\affil, \apj, \citep, \apjl, \resetcounters, \aap, \includegraphics, \mnras, \pasp, \citeauthor, \citet, \araa, \acknowledgements, \plottwo]; 1 missing file[asp2010.sty].
15003 2013-04-13 22:20:16 /1012/1012.2603 27260000[{keywords}, {algorithm}, \s, \If, \For, \eg, \sst, \KwIn, \KwTo, \argmax, \T, \etal, \KwOut, \e, \argmin, \a, \Begin, \ie, \lIf]; 4 missing files[cs.sty, IEEEtran.cls, sidecap.sty, mathsymb.sty].
15004 2013-04-13 22:20:13 /1012/1012.2625 3250000[\comby, \catchline, \refcite, {history}, \vmax, \beq, \received, \eeq, \sigmapSI, \aDd, \abrac, \keywords, \includegraphics, \rmXA, \ve, \mN, \mchi, \revised]; 3 missing files[clshan-math.sty, clshan-dm-dd.sty, ws.sty].
15005 2013-04-13 22:19:45 /1012/1012.2613 030000[\subfloat].
15006 2013-04-13 22:19:43 /1012/1012.2606 830000[\theappendix, \affil]; 1 missing file[authblk.sty].
15007 2013-04-13 22:19:41 /1012/1012.2617 910000[\@slowromancap].
15008 2013-04-13 22:19:32 /1012/1012.2616 060000[\jnltitlelogo, \jid, \dochead, \runauth, \journalname]; 1 missing file[ecrc.sty].
15009 2013-04-13 22:18:57 /1012/1012.2583 760000[Align, \xymatrix, \ar]; 1 missing file[xy.sty].
15010 2013-04-13 22:18:55 /1012/1012.2604 14140000[\includegraphics, \ShortTitle, \gtrsim, \email, \FullConference, \speaker]; 1 missing file[PoS.cls].
15011 2013-04-13 22:18:28 /1012/1012.2563 3240000[Align, \xymatrix, \ar]; 1 missing file[xy.sty].
15012 2013-04-13 22:18:25 /1012/1012.2597 020000[\layoutstyle, \classification].
15013 2013-04-13 22:18:13 /1012/1012.2553 23910000[\theappendix].
15014 2013-04-13 22:18:13 /1012/1012.2584 250000[\jid, \dochead, \runauth, \journalname]; 1 missing file[ecrc.sty].
15015 2013-04-13 22:18:00 /1012/1012.2575 220000[\ack, \ead].
15016 2013-04-13 22:18:00 /1012/1012.2590 160000[\includegraphics, \ShortTitle, \email, \FullConference, \resizebox, \speaker]; 1 missing file[PoS.cls].
15017 2013-04-13 22:17:36 /1012/1012.2580 0360000[\affil, \citep, \tableline, \plotfiddle, \resetcounters, \gtrsim, \plotone, \citet, \plottwo]; 1 missing file[asp2010.sty].
15018 2013-04-13 22:17:35 /1012/1012.2582 140000[\nicefrac, \extrasenglish, \dateenglish, \captionsenglish].
15019 2013-04-13 22:17:32 /1012/1012.2523 45250000[\textcyrup, \contentspage, \xymatrix, \thetitle, \titleformat, \titleclass, \subsubsubsection, Align, {comment}, \titlecontents, \contentslabel, \titlerule, \titlespacing, \ar]; 11 missing files[xycurve.sty, xymatrix.sty, xyline.sty, xyarrow.sty, xycmtip
15020 2013-04-13 22:17:24 /1012/1012.2557 1040000[Align, \xymatrix, \ar]; 1 missing file[xy.sty].
15021 2013-04-13 22:17:22 /1012/1012.2484 102100000[Align, \mathds, \mathtoolsset, {dcases}, \prescript]; 2 missing files[mathtools.sty, microtype.sty].
15022 2013-04-13 22:17:22 /1012/1012.2559 940000[Align, \xymatrix, \ar]; 1 missing file[xy.sty].
15023 2013-04-13 22:17:18 /1012/1012.2569 110000[\cortext].
15024 2013-04-13 22:17:12 /1012/1012.2558 1140000[Align, \xymatrix, \ar]; 1 missing file[xy.sty].
15025 2013-04-13 22:16:50 /1012/1012.2572 2210000[\ead].
15026 2013-04-13 22:16:44 /1012/1012.2556 110000[\theappendix].
15027 2013-04-13 22:16:02 /1012/1012.2548 030000[\layoutstyle, \classification]; 1 missing file[{aipcheck}].
15028 2013-04-13 22:15:50 /1012/1012.2551 0140000[{overpic}].
15029 2013-04-13 22:14:42 /1012/1012.2497 2180000[{SCfigure}]; 1 missing file[sidecap.sty].
15030 2013-04-13 22:14:33 /1012/1012.2496 190000[{keywords}, \accepted, \jdate, \pagerange, \revised, \submitted, \pubyear, \volume]; 2 missing files[tlp.cls, aopmath.sty].
15031 2013-04-13 22:14:16 /1012/1012.2493 11150000[\includegraphics, \ShortTitle, \email, \FullConference, \speaker]; 1 missing file[PoS.cls].
15032 2013-04-13 22:14:03 /1012/1012.2498 17210000[\catchline, {history}, \psfig, \revised, \received].
15033 2013-04-13 22:14:00 /1012/1012.2458 5210000[\citet].
15034 2013-04-13 22:13:59 /1012/1012.2489 5910000[\mathrsfs].
15035 2013-04-13 22:13:54 /1012/1012.2500 18200000[\includegraphics, \ShortTitle, \email, \FullConference, \speaker]; 1 missing file[PoS.cls].
15036 2013-04-13 22:13:53 /1012/1012.2501 140000[{theacknowledgments}, \layoutstyle, \classification]; 1 missing file[{aipcheck}].
15037 2013-04-13 22:13:52 /1012/1012.2499 130000[{IEEEkeywords}, {IEEEbiography}, \IEEEpeerreviewmaketitle]; 1 missing file[IJIT.cls].
15038 2013-04-13 22:13:44 /1012/1012.2488 2450000[Align, \xyoption, \xymatrix, \ar]; 1 missing file[xy.sty].
15039 2013-04-13 22:13:34 /1012/1012.2481 6840000[Align, \xymatrix, \ar]; 1 missing file[xy.sty].
15040 2013-04-13 22:13:26 /1012/1012.2485 1730000[\Instfoot, {Authlist}, \docnum]; 1 missing file[cernart.cls].
15041 2013-04-13 22:12:52 /1012/1012.2474 260000[\eqref, {theacknowledgments}, \layoutstyle, \classification]; 1 missing file[{aipcheck}].
15042 2013-04-13 22:12:49 /1012/1012.2466 183440000[\xspace, \Pap, \PW, \Pgmm, \Pgt, \Pgmp, \multirow, \address, \Pp, \PWm, \text, \boolean, \RCS, \Pe, \Pep, \Pgm, \PWp, \PgU, \Pem, \cmsinstskip, \hypersetup, \includegraphics, \ifthenelse, \cmsAuthorMark, \cmsNoteHeader]; 1 missing file[cms-tdr.cls].
15043 2013-04-13 22:12:48 /1012/1012.2476 330000[\Text, \ArrowLine, \DashArrowLine].
15044 2013-04-13 22:12:46 /1012/1012.2454 11120000[{comment}]; 1 missing file[xy.sty].
15045 2013-04-13 22:12:30 /1012/1012.2451 3460000[Align, \xhookrightarrow, \xymatrix, \ar]; 2 missing files[mathtools.sty, xy.sty].
15046 2013-04-13 22:12:22 /1012/1012.2467 3170000[\endxy, Align, \xyoption, \crv, \xy, \ar]; 1 missing file[xy.sty].
15047 2013-04-13 22:12:12 /1012/1012.2463 1140000[\includegraphics, \address, \catchline, {history}, \tbl, \keywords, \received]; 2 missing files[ws-ijbc.cls, ws-rotating.sty].
15048 2013-04-13 22:11:46 /1012/1012.2472 530000[\altaffiltext, \altaffilmark]; 1 missing file[asp2010.sty].
15049 2013-04-13 22:11:32 /1012/1012.2414 3550000[\arxivnumber, \affiliation, \emailAdd, \keywords]; 1 missing file[jheppub.sty].
15050 2013-04-13 22:11:10 /1012/1012.2446 4470000[\arcmin, \endpage, \lesssim, {tabnote}, \tablecolumns, \runningtitle, \acknowledgments, \micron, \volume, \sun, {deluxetable}, \startdata, \issueno, \address, \arcsec, \etal, \enddata, \colhead, \tablenotetext, \epsscale, \tablehead, \tablewidth, \keywor
15051 2013-04-13 22:11:03 /1012/1012.2452 130000[\extrasenglish, \dateenglish, \captionsenglish].
15052 2013-04-13 22:10:56 /1012/1012.2416 3580000[Align, \xymatrixcolsep, \SelectTips, \xymatrix, \entrymodifiers, \ar, \xymatrixrowsep]; 1 missing file[xy.sty].
15053 2013-04-13 22:10:51 /1012/1012.2449 18130000[\includegraphics, \smaller, \ShortTitle, \email, \FullConference, \speaker]; 1 missing file[PoS.cls].
15054 2013-04-13 22:10:45 /1012/1012.2450 030000[\extrasenglish, \dateenglish, \captionsenglish].
15055 2013-04-13 22:10:28 /1012/1012.2423 070000[\@end@institute].
15056 2013-04-13 22:10:18 /1012/1012.2417 13100000[\Ref, \prt, \eps, \la, \del, {comment}, \th, \bpm, \cL, \epm].
15057 2013-04-13 22:10:13 /1012/1012.2418 3410000[\theappendix].
15058 2013-04-13 22:10:08 /1012/1012.2392 4510000[{comment}].
15059 2013-04-13 22:10:08 /1012/1012.2432 610000[\twocolumn@sw].
15060 2013-04-13 22:09:59 /1012/1012.2421 190000[Align, \epsfbox, \relabel, \endrelabelbox, \xymatrix, \relabelbox, \ar]; 2 missing files[rlepsf.sty, xy.sty].
15061 2013-04-13 22:09:19 /1012/1012.2422 230000[\nicefrac, \setmargnohfrb, \setpapersize].
15062 2013-04-13 22:09:18 /1012/1012.2409 1480000[\harvarditem].
15063 2013-04-13 22:09:15 /1012/1012.2415 19180000[\ccode, \eqref, \catchline, {overpic}, {aligned}, \keywords, Align, \address, {history}, \revised, \text, \received]; 1 missing file[ws-ijmpcs.cls].
15064 2013-04-13 22:08:48 /1012/1012.2396 140000[\extrasenglish, \dateenglish, \captionsenglish]; 1 missing file[esint.sty].
15065 2013-04-13 22:08:46 /1012/1012.2385 204120000[\citep, \affiliation, \emailAdd, \resizebox, \acknowledgments, \keywords, \includegraphics, \arxivnumber, \citet]; 1 missing file[jcappub.sty].
15066 2013-04-13 22:08:34 /1012/1012.2399 180000[\pacs, \inst, \shortauthor, \institute, \onefigure, \etal]; 1 missing file[epl2.cls].
15067 2013-04-13 22:08:29 /1012/1012.2387 410000[\sout].
15068 2013-04-13 22:08:27 /1012/1012.2370 110000[\theappendix].
15069 2013-04-13 22:08:17 /1012/1012.2386 080000[\mnras, \aaa, \apj, \inst, \institute, \la, \keywords]; 1 missing file[sao1.sty].
15070 2013-04-13 22:07:55 /1012/1012.2334 3710000[\color].
15071 2013-04-13 22:07:40 /1012/1012.2376 120000[\theappendix, \meter].
15072 2013-04-13 22:07:23 /1012/1012.2354 230000[\address, {frontmatter}, {proof}]; 1 missing file[monsky2009.cls].
15073 2013-04-13 22:07:18 /1012/1012.2367 1600000[\Mt, \shad, \glu, \dalhad, \ALR, \ptau, \Afbzb, \MW, \swsqeffl, \mcc, \Qfbhad, \MH, \cAc, \GZ, \GW, \swsqeff, \QWCs, \Gll, \Zzero, \Rbz, \gru, \cAb, \LOGMH, \Rcz, \citet, \grd, \alfmz, \swsqsqeff, \alfas, \rhon, \MeV, \gnrq, \Afbzc, \gld, \gnlq, \Rl, \cA
15074 2013-04-13 22:06:57 /1012/1012.2371 010000[\theappendix].
15075 2013-04-13 22:06:46 /1012/1012.2353 12410000[\FullConference, \acknowledgments, \ShortTitle, \includegraphics, {floatingfigure}, \email, \gtrsim, \speaker]; 1 missing file[PoS.cls].
15076 2013-04-13 22:06:27 /1012/1012.2357 140000[\inst, \institute, \keywords]; 1 missing file[sao1.sty].
15077 2013-04-13 22:06:22 /1012/1012.2360 040000[\inst, \institute, \keywords]; 1 missing file[sao1.sty].
15078 2013-04-13 22:06:21 /1012/1012.2348 390000[\theappendix, \micro, \braket, \metre, \si, \SI, \ket]; 2 missing files[pdfpages.sty, siunitx.sty].
15079 2013-04-13 22:06:17 /1012/1012.2362 040000[\inst, \institute, \keywords]; 1 missing file[sao1.sty].
15080 2013-04-13 22:06:02 /1012/1012.2347 0250000[\affil, \plotone, \acknowledgements, \resetcounters]; 1 missing file[asp2010.sty].
15081 2013-04-13 22:05:53 /1012/1012.2326 20120000[Align, \xymatrix, \ar]; 9 missing files[xycurve.sty, xymatrix.sty, xyline.sty, xyarrow.sty, xycmtip.sty, xycolor.sty, xyrotate.sty, xyframe.sty, xygraph.sty].
15082 2013-04-13 22:05:47 /1012/1012.2335 5300000[\includegraphics, \ShortTitle, \gtrsim, \email, \FullConference, \speaker]; 1 missing file[PoS.cls].
15083 2013-04-13 22:05:47 /1012/1012.2337 230000[\extrasenglish, \dateenglish, \captionsenglish].
15084 2013-04-13 22:05:33 /1012/1012.2323 410000[\tnotetext].
15085 2013-04-13 22:05:00 /1012/1012.2314 120000[\layoutstyle, \classification].
15086 2013-04-13 22:04:58 /1012/1012.2315 040000[\layoutstyle, \classification]; 2 missing files[mciteplus.sty, {aipcheck}].
15087 2013-04-13 22:04:55 /1012/1012.2318 540000[\ShortTitle, \email, \FullConference, \speaker]; 1 missing file[PoS.cls].
15088 2013-04-13 22:04:52 /1012/1012.2303 610000[\cortext].
15089 2013-04-13 22:04:52 /1012/1012.2332 030000[\section, \cite, \label].
15090 2013-04-13 22:04:39 /1012/1012.2293 610000[\psfrag].
15091 2013-04-13 22:04:14 /1012/1012.2308 030000[\layoutstyle, \classification]; 1 missing file[{aipcheck}].
15092 2013-04-13 22:04:03 /1012/1012.2274 2840000[Align, \xymatrix, \ar]; 1 missing file[xy.sty].
15093 2013-04-13 22:04:01 /1012/1012.2298 940000[{theacknowledgments}, \layoutstyle, \tablehead, \classification].
15094 2013-04-13 22:04:00 /1012/1012.2299 270000[\citeNN, {keywords}, \email, \accepted, \revised, \submitted]; 2 missing files[tlp.cls, breakurl.sty].
15095 2013-04-13 22:03:54 /1012/1012.2296 030000[\layoutstyle, \classification]; 1 missing file[{aipcheck}].
15096 2013-04-13 22:03:53 /1012/1012.2297 5100000[\lesssim, \editors, \affiliation, \keywords, \volume, \firstsection, \gtrsim, \pagerange, \jname, \pubyear]; 1 missing file[iaus.cls].
15097 2013-04-13 22:03:46 /1012/1012.2284 010000[\@end@institute].
15098 2013-04-13 22:03:38 /1012/1012.2165 516140000[\kwd, \snm, \startlocaldefs, \affiliation, {keyword}, \fnms, \runtitle, \arxiv, \endlocaldefs, \address, \runauthor, \printead, {frontmatter}, \ead]; 1 missing file[imsart.cls].
15099 2013-04-13 22:03:30 /1012/1012.2286 260000[\affil, \reference, {references}, \tableline, \acknowledgments]; 1 missing file[colloqOHP2010.sty].
15100 2013-04-13 22:03:19 /1012/1012.2290 060000[\jnltitlelogo, \jid, \dochead, \runauth, \journalname]; 1 missing file[ecrc.sty].
15101 2013-04-13 22:03:14 /1012/1012.2292 370000[\PACSes, \ETC, \shorttitle, \atque, \acknowledgments, \instlist, \from].
15102 2013-04-13 22:02:52 /1012/1012.2270 110000[\href].
15103 2013-04-13 22:02:45 /1012/1012.2282 860000[\jnltitlelogo, \jid, \dochead, \runauth, \journalname]; 1 missing file[ecrc.sty].
15104 2013-04-13 22:02:44 /1012/1012.2267 2130000[\comby, \catchline, \psfig, \tbl, {itemlist}, \keywords, {history}, \revised, \received]; 1 missing file[ws.sty].
15105 2013-04-13 22:02:32 /1012/1012.2257 920000[\@end@institute]; 1 missing file[fix-cm.sty].
15106 2013-04-13 22:02:31 /1012/1012.2266 150000[\includegraphics, \ShortTitle, \email, \FullConference, \speaker]; 1 missing file[PoS.cls].
15107 2013-04-13 22:02:19 /1012/1012.2256 0190000[\RRresume, \titlehead, \RRtitle, \makeRR, \RRprojets, \RRetitle, \textdbend, \RRNo, \RRauthor, \RRtheme, \THNum, \authorhead, \RRabstract, \RRdate, \URRhoneAlpes, \RRmotcle, \RRkeyword]; 2 missing files[manfnt.sty, RR.sty].
15108 2013-04-13 22:02:14 /1012/1012.2236 13110000[\pdfbookmark].
15109 2013-04-13 22:02:04 /1012/1012.2261 060000[Align, \jid, \dochead, \runauth, \journalname]; 1 missing file[ecrc.sty].
15110 2013-04-13 22:02:01 /1012/1012.2233 41330000[Align, \mathds, \slashed, \biboptions].
15111 2013-04-13 22:01:35 /1012/1012.2242 1610000[Align].
15112 2013-04-13 22:01:06 /1012/1012.2234 270000[\firstsection, \editors, \affiliation, \jname, \keywords, \volume, \pubyear]; 1 missing file[iaus.cls].
15113 2013-04-13 22:01:04 /1012/1012.2237 030000[\layoutstyle, \classification]; 1 missing file[{aipcheck}].
15114 2013-04-13 22:01:00 /1012/1012.2212 71390000[\coloneqq, \geometry]; 1 missing file[mathtools.sty].
15115 2013-04-13 22:00:54 /1012/1012.2193 3220000[\captionsrussian, \addto]; 1 missing file[jctart08.cls].
15116 2013-04-13 22:00:49 /1012/1012.2231 1290000[\includegraphics, \ShortTitle, \email, \FullConference, \resizebox, \speaker]; 1 missing file[PoS.cls].
15117 2013-04-13 22:00:46 /1012/1012.2220 720000[\ack, \ead].
15118 2013-04-13 22:00:45 /1012/1012.2229 1280000[\includegraphics, \affil, \citep, \citet, \acknowledgements, \resizebox, \resetcounters]; 1 missing file[asp2010.sty].
15119 2013-04-13 22:00:44 /1012/1012.2230 030000[{theacknowledgments}, \layoutstyle, \classification].
15120 2013-04-13 22:00:40 /1012/1012.2194 1710000[\psfrag].
15121 2013-04-13 22:00:35 /1012/1012.2213 450000[\includegraphics, \ShortTitle, \email, \FullConference, \speaker]; 1 missing file[PoS.cls].
15122 2013-04-13 22:00:32 /1012/1012.2215 1110000[\ShortTitle, \href, \gtrsim, \email, \lesssim, \FullConference, \speaker]; 2 missing files[PoS.cls, aas_macros.sty].
15123 2013-04-13 22:00:21 /1012/1012.2218 2220000[\pile, \rTo].
15124 2013-04-13 22:00:17 /1012/1012.2217 0190000[\includegraphics, \affil, \citep, \citet, \acknowledgements, \resetcounters]; 1 missing file[asp2010.sty].
15125 2013-04-13 22:00:10 /1012/1012.2221 260000[\pacs, \inst, \shortauthor, \institute, \acknowledgments, \etal]; 1 missing file[epl2.cls].
15126 2013-04-13 22:00:09 /1012/1012.2222 560000[\includegraphics, \ShortTitle, \email, \FullConference, \speaker]; 1 missing file[PoS.cls].
15127 2013-04-13 21:59:58 /1012/1012.2204 020000[{frontmatter}, {keyword}].
15128 2013-04-13 21:59:57 /1012/1012.2203 220000[{definition}, \newdefinition].
15129 2013-04-13 21:59:53 /1012/1012.2198 4430000[\dint, \tint, \tsum].
15130 2013-04-13 21:59:39 /1012/1012.2192 1330000[\xyoption, \UseCrayolaColors]; 1 missing file[xy.sty].
15131 2013-04-13 21:59:21 /1012/1012.2200 120000[\degree]; 1 missing file[gensymb.sty].
15132 2013-04-13 21:59:15 /1012/1012.2199 020000[\svhline]; 1 missing file[type1cm.sty].
15133 2013-04-13 21:59:14 /1012/1012.2201 220000[\ack, \ead].
15134 2013-04-13 21:59:10 /1012/1012.2197 1110000[\confcountry, \conffullname, {acknowledgment}, \affiliation, \confshortname, \papernum, \confmonth, \confcity, \confyear, \tensfb, \confdate]; 1 missing file[asme2e.cls].
15135 2013-04-13 21:59:06 /1012/1012.2191 430000[\xyoption, \UseCrayolaColors]; 1 missing file[xy.sty].
15136 2013-04-13 21:58:56 /1012/1012.2178 620000[\rrbracket, \llbracket].
15137 2013-04-13 21:58:54 /1012/1012.2170 13570000[Align, \xymatrix, \ar]; 2 missing files[xy.sty, pslatex.sty].
15138 2013-04-13 21:58:54 /1012/1012.2183 060000[\affil, \reference, {references}, \aap, \acknowledgments]; 1 missing file[colloqOHP2010.sty].
15139 2013-04-13 21:58:49 /1012/1012.2187 6330000[{overpic}].
15140 2013-04-13 21:58:11 /1012/1012.2182 20230000[{algorithm}, \Until, \EndFor, \Comment, \Else, \ElsIf, {algorithmic}, \Repeat, \For, \If, \ForAll, \State, \Return, \algorithmicif, \EndIf]; 1 missing file[pictex.sty].
15141 2013-04-13 21:57:54 /1012/1012.2180 21020000[\indices]; 1 missing file[tensor.sty].
15142 2013-04-13 21:57:43 /1012/1012.2154 0340000[Align, \@close@row, \captiondelim]; 4 missing files[threeparttable.sty, figcaps.sty, threeparttablex.sty, ccaption.sty].
15143 2013-04-13 21:57:41 /1012/1012.2149 3620000[\affil]; 1 missing file[authblk.sty].
15144 2013-04-13 21:57:34 /1012/1012.2155 8170000[\allsectionsfont, \nameref, \labelformat, \normalem]; 3 missing files[slashbox.sty, sectsty.sty, sidecap.sty].
15145 2013-04-13 21:57:22 /1012/1012.2164 240000[\authorblockN, {keywords}, \authorrefmark, \authorblockA]; 1 missing file[IEEEtran.cls].
15146 2013-04-13 21:57:14 /1012/1012.2147 630000[\address]; 2 missing files[macros.sty, xy.sty].
15147 2013-04-13 21:57:09 /1012/1012.2166 010000[\@end@institute].
15148 2013-04-13 21:56:58 /1012/1012.2146 1640000[Align, \xymatrix, \ar]; 1 missing file[xy.sty].
15149 2013-04-13 21:56:53 /1012/1012.2150 1320000[\unit, \astrosun].
15150 2013-04-13 21:56:41 /1012/1012.2172 3460000[\includegraphics, \ShortTitle, \email, \FullConference, \resizebox, \speaker]; 1 missing file[PoS.cls].
15151 2013-04-13 21:56:34 /1012/1012.2103 164150000[\binom, \square, \eqref, \overset, \mathbb, \leqslant, \geqslant, \affiliation, \emailAdd, \tfrac, \acknowledgments, \mathfrak]; 1 missing file[jheppub.sty].
15152 2013-04-13 21:56:32 /1012/1012.2133 32600000[\printhistory, \doi, \syear, {bmisc}, \volume, {example}, \bid, \address, \bfnm, \dvtx, \operatorname, \aid, \bhowpublished, \byear, \hyperref, \corref, \firstpage, \endbibitem, \received, \kwd, \mathbb, \bparticle, \bauthor, \snm, \beditor, \btitle, \sm
15153 2013-04-13 21:55:54 /1012/1012.2130 116110000[\save, \cir, \Tr, \xymatrix, \xy, \POS, \endxy, \restore, \dir, \ar]; 1 missing file[xy.sty].
15154 2013-04-13 21:55:50 /1012/1012.2161 170000[\citealt, \affil, \citep, \citet, \resetcounters, \plottwo]; 1 missing file[asp2010.sty].
15155 2013-04-13 21:55:38 /1012/1012.2135 270000[\AddToShipoutPicture, \CIRCLE, \UParrow]; 3 missing files[fix-cm.sty, balance.sty, eso-pic.sty].
15156 2013-04-13 21:55:30 /1012/1012.2152 140000[\IEEEauthorblockA, \IEEEauthorblockN, \IEEEauthorrefmark]; 2 missing files[IEEEtran.cls, soul.sty].
15157 2013-04-13 21:55:27 /1012/1012.2127 710000[\theappendix].
15158 2013-04-13 21:55:22 /1012/1012.2123 14120000[\eqref, \mathbb, \theoremstyle, \keywords, \numberwithin, \includegraphics, \address, \email, \subjclass, \text, {proof}, \br]; 1 missing file[birkjour.cls].
15159 2013-04-13 21:55:18 /1012/1012.2136 2090000[\ccode, \smaller, \catchline, \tbl, \keywords, \address, {history}, \revised, \received]; 1 missing file[ws-ijmpcs.cls].
15160 2013-04-13 21:55:06 /1012/1012.2138 1150000[\bbR, {algorithm}, \ForEach, \DontPrintSemicolon].
15161 2013-04-13 21:55:05 /1012/1012.2131 1040000[{SCfigure}, \subfloat]; 1 missing file[sidecap.sty].
15162 2013-04-13 21:54:52 /1012/1012.2125 0350000[\catchline, {tabnote}, {romanlist}, \accepted, {itemlist}, {history}, {tabfootnote}, \botrule, \toprule, \received, \psfig, \tbl, \keywords, \colrule, \tabmark, \revised].
15163 2013-04-13 21:54:34 /1012/1012.2105 8150000[\mathds, \sectionfont, \subsectionfont, \marginsize]; 1 missing file[sectsty.sty].
15164 2013-04-13 21:54:26 /1012/1012.2115 7190000[\apj, \citep, \lesssim, \pasj, \apjl, \aap, \Accepted, \email, \pasp, \KeyWords, \aj, \altaffilmark, \mnras, \apjs, \gtrsim, \FigureFile, \altaffiltext, \citet, \SetRunningHead]; 1 missing file[pasj00.cls].
15165 2013-04-13 21:53:44 /1012/1012.2098 3180000[\smaller, \mathds, \sectionfont, \subsubsectionfont, {sideways}, \subsectionfont, \marginsize]; 1 missing file[sectsty.sty].
15166 2013-04-13 21:53:27 /1012/1012.2106 140000[\ShortTitle, \email, \FullConference, \speaker]; 1 missing file[PoS.cls].
15167 2013-04-13 21:53:09 /1012/1012.2081 15120000[Align, \xymatrix, \ar]; 9 missing files[xycurve.sty, xymatrix.sty, xyline.sty, xyarrow.sty, xycmtip.sty, xycolor.sty, xyrotate.sty, xyframe.sty, xygraph.sty].
15168 2013-04-13 21:53:05 /1012/1012.2092 2820000[{comment}]; 1 missing file[version.sty].
15169 2013-04-13 21:52:30 /1012/1012.2085 2110000[\editors, \affiliation, \discuss, \keywords, \volume, \firstsection, {discussion}, \pagerange, \jname, \pubyear, \etal]; 1 missing file[iaus.cls].
15170 2013-04-13 21:52:27 /1012/1012.2088 090000[\SetArgSty, \KwIn, {function}, \Return, \KwOut, \While].
15171 2013-04-13 21:52:24 /1012/1012.2087 510000[\slashed].
15172 2013-04-13 21:52:23 /1012/1012.2090 010000[{subequations}].
15173 2013-04-13 21:51:47 /1012/1012.2062 6420000[\theappendix, \psfrag].
15174 2013-04-13 21:51:38 /1012/1012.2073 910000[\IEEEpeerreviewmaketitle]; 1 missing file[IEEEtran.cls].
15175 2013-04-13 21:51:31 /1012/1012.2063 030000[\extrasenglish, \dateenglish, \captionsenglish].
15176 2013-04-13 21:51:07 /1012/1012.2080 2110000[\editors, \affiliation, \discuss, \keywords, \volume, \firstsection, {discussion}, \pagerange, \jname, \pubyear, \etal]; 1 missing file[iaus.cls].
15177 2013-04-13 21:51:05 /1012/1012.2068 2420000[\xygraph]; 1 missing file[xy.sty].
15178 2013-04-13 21:50:58 /1012/1012.2082 0170000[\affil, \citep, \resetcounters, \citealt, Align, \plotone, \arcsec, \citet]; 1 missing file[asp2010.sty].
15179 2013-04-13 21:50:25 /1012/1012.2070 040000[\extrasenglish, \dateenglish, \captionsenglish]; 1 missing file[esint.sty].
15180 2013-04-13 21:50:22 /1012/1012.2060 350000[\arxivnumber, \psfrag, \affiliation, \emailAdd]; 1 missing file[jheppub.sty].
15181 2013-04-13 21:50:10 /1012/1012.2052 810000[\lamba].
15182 2013-04-13 21:50:05 /1012/1012.2012 211130000[\kwd, \snm, \startlocaldefs, {keyword}, \fnms, \runtitle, \endlocaldefs, \address, \runauthor, \printead, \corref, {frontmatter}, \ead]; 1 missing file[imsart.cls].
15183 2013-04-13 21:50:04 /1012/1012.2057 040000[\extrasenglish, \dateenglish, \captionsenglish]; 1 missing file[soul.sty].
15184 2013-04-13 21:49:46 /1012/1012.2050 2820000[\theappendix]; 1 missing file[extraipa.sty].
15185 2013-04-13 21:49:45 /1012/1012.2044 9240000[\includegraphics, \ShortTitle, \email, \FullConference, \acknowledgments, \speaker]; 1 missing file[PoS.cls].
15186 2013-04-13 21:49:36 /1012/1012.2027 5170000[\TableExplanation, Align, \datatables, \listofDtables, \cortext, \biboptions]; 1 missing file[adndt.sty].
15187 2013-04-13 21:49:30 /1012/1012.2045 140000[\xyoption, \psfrag]; 2 missing files[soul.sty, xy.sty].
15188 2013-04-13 21:49:29 /1012/1012.2034 3400000[\NTIMEGUESS, \EXP, \coC, \MATIME, \BPP, \SAT, \StSAT, \NP, \PP, \AM, \ro, \CircuitSAT, \BTIME, \NTIME, \coNTIME, \B, \DTIME, \BPTIME, \StP, \DTISP, \NEXP, \C, \MA, \ACC, \E, \TIME, \RP, \io, \MAE, {proofsketch}, \Promise, \poly, \polylog, \SIZE, \D, \MAE
15189 2013-04-13 21:49:11 /1012/1012.2042 1110000[\subfloat].
15190 2013-04-13 21:49:08 /1012/1012.2039 210000[\normalem].
15191 2013-04-13 21:49:02 /1012/1012.2036 22110000[\includegraphics, \catchline, \refcite, \keywords]; 1 missing file[hyphenat.sty].
15192 2013-04-13 21:48:53 /1012/1012.2028 2190000[\theappendix, \Sch, {sidewaysfigure}]; 1 missing file[MyPack.sty].
15193 2013-04-13 21:48:47 /1012/1012.2022 2610000[\belowcaptionskip].
15194 2013-04-13 21:48:43 /1012/1012.1959 38810000[\setitemize].
15195 2013-04-13 21:48:43 /1012/1012.2026 22180000[\Line, \Photon, \affiliation, \emailAdd, \SetColor, \acknowledgments, \Black, \Vertex, \Text, \DashBezier, \SetWidth, \Bezier, \SetScale, \PhotonArc, \GOval, \Red]; 2 missing files[axodraw4j.sty, jheppub.sty].
15196 2013-04-13 21:48:09 /1012/1012.2020 1640000[\midrule, \toprule, \bottomrule]; 1 missing file[microtype.sty].
15197 2013-04-13 21:48:08 /1012/1012.2032 1860000[\jnltitlelogo, \jid, \dochead, \runauth, \journalname]; 1 missing file[ecrc.sty].
15198 2013-04-13 21:48:01 /1012/1012.2013 160000[\theappendix, \pra, \address, \email, \prl, \ol].
15199 2013-04-13 21:47:57 /1012/1012.1985 4820000[\fint]; 1 missing file[esint.sty].
15200 2013-04-13 21:47:29 /1012/1012.1933 125210000[\super, \chairmanname, \copyrightnotice, \supertitle, \QTR, \degreeyear, \degreemonth, \university, \NEG, \prevdegrees, \tsum, \chairmantitle, \department, \thisdegree]; 1 missing file[mitthesis.sty].
<<< >>>

[0] [200] [400] [600] [800] [1000] [1200] [1400] [1600] [1800] [2000] [2200] [2400] [2600] [2800] [3000] [3200] [3400] [3600] [3800] [4000] [4200] [4400] [4600] [4800] [5000] [5200] [5400] [5600] [5800] [6000] [6200] [6400] [6600] [6800] [7000] [7200] [7400] [7600] [7800] [8000] [8200] [8400] [8600] [8800] [9000] [9200] [9400] [9600] [9800] [10000] [10200] [10400] [10600] [10800] [11000] [11200] [11400] [11600] [11800] [12000] [12200] [12400] [12600] [12800] [13000] [13200] [13400] [13600] [13800] [14000] [14200] [14400] [14600] [14800] [15000] [15200] [15400] [15600] [15800] [16000] [16200] [16400] [16600] [16800] [17000] [17200] [17400] [17600] [17800] [18000] [18200] [18400] [18600] [18800] [19000] [19200] [19400] [19600] [19800] [20000] [20200] [20400] [20600] [20800] [21000] [21200] [21400] [21600] [21800] [22000] [22200] [22400] [22600] [22800] [23000] [23200] [23400] [23600] [23800] [24000] [24200] [24400] [24600] [24800] [25000] [25200] [25400] [25600] [25800] [26000] [26200] [26400] [26600] [26800] [27000] [27200] [27400] [27600] [27800] [28000] [28200] [28400] [28600] [28800] [29000] [29200] [29400] [29600] [29800] [30000] [30200] [30400] [30600] [30800] [31000] [31200] [31400] [31600] [31800] [32000] [32200] [32400] [32600] [32800] [33000] [33200] [33400] [33600] [33800] [34000] [34200] [34400] [34600] [34800] [35000] [35200] [35400] [35600] [35800] [36000] [36200] [36400] [36600] [36800] [37000] [37200] [37400] [37600] [37800] [38000] [38200] [38400] [38600] [38800] [39000] [39200] [39400] [39600] [39800] [40000] [40200] [40400] [40600] [40800] [41000] [41200] [41400] [41600] [41800] [42000] [42200] [42400] [42600] [42800] [43000] [43200] [43400] [43600] [43800] [44000] [44200] [44400] [44600] [44800] [45000] [45200] [45400] [45600] [45800] [46000] [46200] [46400] [46600] [46800] [47000] [47200] [47400] [47600] [47800] [48000] [48200] [48400] [48600] [48800] [49000] [49200] [49400] [49600] [49800] [50000] [50200] [50400] [50600] [50800] [51000] [51200] [51400] [51600] [51800] [52000] [52200] [52400] [52600] [52800] [53000] [53200] [53400] [53600] [53800] [54000] [54200] [54400] [54600] [54800] [55000] [55200] [55400] [55600] [55800] [56000] [56200] [56400] [56600] [56800] [57000] [57200] [57400] [57600] [57800] [58000] [58200] [58400] [58600] [58800] [59000] [59200] [59400] [59600] [59800] [60000] [60200] [60400] [60600] [60800] [61000] [61200] [61400] [61600] [61800] [62000] [62200] [62400] [62600] [62800] [63000] [63200] [63400] [63600] [63800] [64000] [64200] [64400] [64600] [64800] [65000] [65200] [65400] [65600] [65800] [66000] [66200] [66400] [66600] [66800] [67000] [67200] [67400] [67600] [67800] [68000] [68200] [68400] [68600] [68800] [69000] [69200] [69400] [69600] [69800] [70000] [70200] [70400] [70600] [70800] [71000] [71200] [71400] [71600] [71800] [72000] [72200] [72400] [72600] [72800] [73000] [73200] [73400] [73600] [73800] [74000] [74200] [74400] [74600] [74800] [75000] [75200] [75400] [75600] [75800] [76000] [76200] [76400] [76600] [76800] [77000] [77200] [77400] [77600] [77800] [78000] [78200] [78400] [78600] [78800] [79000] [79200] [79400] [79600] [79800] [80000] [80200] [80400] [80600] [80800] [81000] [81200] [81400] [81600] [81800] [82000] [82200] [82400] [82600] [82800] [83000] [83200] [83400] [83600] [83800] [84000] [84200] [84400] [84600] [84800] [85000] [85200] [85400] [85600] [85800] [86000] [86200] [86400] [86600] [86800] [87000] [87200] [87400] [87600] [87800] [88000] [88200] [88400] [88600] [88800] [89000] [89200] [89400] [89600] [89800] [90000] [90200] [90400] [90600] [90800] [91000] [91200] [91400] [91600] [91800] [92000] [92200] [92400] [92600] [92800] [93000] [93200] [93400] [93600] [93800] [94000] [94200] [94400] [94600] [94800] [95000] [95200] [95400] [95600] [95800] [96000] [96200] [96400] [96600] [96800] [97000] [97200] [97400] [97600] [97800] [98000] [98200] [98400] [98600] [98800] [99000] [99200] [99400] [99600] [99800] [100000] [100200] [100400] [100600] [100800] [101000] [101200] [101400] [101600] [101800] [102000] [102200] [102400] [102600] [102800] [103000] [103200] [103400] [103600] [103800] [104000] [104200] [104400] [104600] [104800] [105000] [105200] [105400] [105600] [105800] [106000] [106200] [106400] [106600] [106800] [107000] [107200] [107400] [107600] [107800] [108000] [108200] [108400] [108600] [108800] [109000] [109200] [109400] [109600] [109800] [110000] [110200] [110400] [110600] [110800] [111000] [111200] [111400] [111600] [111800] [112000] [112200] [112400] [112600] [112800] [113000] [113200] [113400] [113600] [113800] [114000] [114200] [114400] [114600] [114800] [115000] [115200] [115400] [115600] [115800] [116000] [116200] [116400] [116600] [116800] [117000] [117200] [117400] [117600] [117800] [118000] [118200] [118400] [118600] [118800] [119000] [119200] [119400] [119600] [119800] [120000] [120200] [120400] [120600] [120800] [121000] [121200] [121400] [121600] [121800] [122000] [122200] [122400] [122600] [122800] [123000] [123200] [123400] [123600] [123800] [124000] [124200] [124400] [124600] [124800] [125000] [125200] [125400] [125600] [125800] [126000] [126200] [126400] [126600] [126800] [127000] [127200] [127400] [127600] [127800] [128000] [128200] [128400] [128600] [128800] [129000] [129200] [129400] [129600] [129800] [130000] [130200] [130400] [130600] [130800] [131000] [131200] [131400] [131600] [131800] [132000] [132200] [132400] [132600] [132800] [133000] [133200] [133400] [133600] [133800] [134000] [134200] [134400] [134600] [134800] [135000] [135200] [135400] [135600] [135800] [136000] [136200] [136400] [136600] [136800] [137000] [137200] [137400] [137600] [137800] [138000] [138200] [138400] [138600] [138800] [139000] [139200] [139400] [139600] [139800] [140000] [140200] [140400] [140600] [140800] [141000] [141200] [141400] [141600] [141800] [142000] [142200] [142400] [142600] [142800] [143000] [143200] [143400] [143600] [143800] [144000] [144200] [144400] [144600] [144800] [145000] [145200] [145400] [145600] [145800] [146000] [146200] [146400] [146600] [146800] [147000] [147200] [147400] [147600] [147800] [148000] [148200] [148400] [148600] [148800] [149000] [149200] [149400] [149600] [149800] [150000] [150200] [150400] [150600] [150800] [151000] [151200] [151400] [151600] [151800] [152000] [152200] [152400] [152600] [152800] [153000] [153200] [153400] [153600] [153800] [154000] [154200] [154400] [154600] [154800] [155000] [155200] [155400] [155600] [155800] [156000] [156200] [156400] [156600] [156800] [157000] [157200] [157400] [157600] [157800] [158000] [158200] [158400] [158600] [158800] [159000] [159200] [159400] [159600] [159800] [160000] [160200] [160400] [160600] [160800] [161000] [161200] [161400] [161600] [161800] [162000] [162200] [162400] [162600] [162800] [163000] [163200] [163400] [163600] [163800] [164000] [164200] [164400] [164600]
 
  The service has been written by
Heinrich Stamerjohanns